createdAt,value
2022-12-11T00:00:25.139Z,0.80
2022-12-11T00:02:52.024Z,0.80
2022-12-11T00:05:20.625Z,0.80
2022-12-11T00:07:47.429Z,0.80
2022-12-11T00:10:14.378Z,0.80
2022-12-11T00:12:41.138Z,0.80
2022-12-11T00:15:08.847Z,0.80
2022-12-11T00:17:36.068Z,0.80
2022-12-11T00:20:03.540Z,0.70
2022-12-11T00:22:31.151Z,0.70
2022-12-11T00:24:57.936Z,0.70
2022-12-11T00:27:24.931Z,0.70
2022-12-11T00:29:51.794Z,0.70
2022-12-11T00:32:18.553Z,0.70
2022-12-11T00:34:45.359Z,0.70
2022-12-11T00:37:12.243Z,0.70
2022-12-11T00:39:39.863Z,0.70
2022-12-11T00:42:07.793Z,0.70
2022-12-11T00:44:35.679Z,0.80
2022-12-11T00:47:03.041Z,0.70
2022-12-11T00:49:29.847Z,0.70
2022-12-11T00:51:56.677Z,0.70
2022-12-11T00:54:23.456Z,0.80
2022-12-11T00:56:50.840Z,0.80
2022-12-11T00:59:17.557Z,0.80
2022-12-11T01:01:44.514Z,0.80
2022-12-11T01:04:11.346Z,0.80
2022-12-11T01:06:39.262Z,0.80
2022-12-11T01:09:24.370Z,0.80
2022-12-11T01:11:51.118Z,0.80
2022-12-11T01:14:17.864Z,0.80
2022-12-11T01:16:44.645Z,0.80
2022-12-11T01:19:11.905Z,0.80
2022-12-11T01:21:38.645Z,0.80
2022-12-11T01:24:05.785Z,0.80
2022-12-11T01:26:32.600Z,0.80
2022-12-11T01:29:01.280Z,0.80
2022-12-11T01:31:28.085Z,0.80
2022-12-11T01:33:55.811Z,0.90
2022-12-11T01:36:23.121Z,0.80
2022-12-11T01:38:50.013Z,0.90
2022-12-11T01:41:17.925Z,0.80
2022-12-11T01:44:07.295Z,0.80
2022-12-11T01:46:36.637Z,0.90
2022-12-11T01:49:07.310Z,0.80
2022-12-11T01:51:40.694Z,0.80
2022-12-11T01:54:10.356Z,0.80
2022-12-11T01:56:38.650Z,0.80
2022-12-11T01:59:07.642Z,0.90
2022-12-11T02:01:38.512Z,0.90
2022-12-11T02:04:07.518Z,0.90
2022-12-11T02:06:44.258Z,0.90
2022-12-11T02:09:14.684Z,0.90
2022-12-11T02:12:09.213Z,0.90
2022-12-11T02:14:44.137Z,0.90
2022-12-11T02:17:16.726Z,0.90
2022-12-11T02:19:55.613Z,1.00
2022-12-11T02:23:00.932Z,1.00
2022-12-11T02:25:41.679Z,1.00
2022-12-11T02:28:14.156Z,1.00
2022-12-11T02:30:42.791Z,1.00
2022-12-11T02:33:13.251Z,0.90
2022-12-11T02:35:43.951Z,0.90
2022-12-11T02:38:16.055Z,0.90
2022-12-11T02:40:44.480Z,0.90
2022-12-11T02:43:15.136Z,1.00
2022-12-11T02:45:43.748Z,1.00
2022-12-11T02:48:11.766Z,1.00
2022-12-11T02:50:43.984Z,1.00
2022-12-11T02:53:13.582Z,1.00
2022-12-11T02:55:43.901Z,1.00
2022-12-11T02:58:21.818Z,1.00
2022-12-11T03:00:48.691Z,1.00
2022-12-11T03:03:16.256Z,1.00
2022-12-11T03:05:43.261Z,1.00
2022-12-11T03:08:10.053Z,1.00
2022-12-11T03:10:36.857Z,1.00
2022-12-11T03:13:04.768Z,1.00
2022-12-11T03:15:55.426Z,1.00
2022-12-11T03:18:39.412Z,1.00
2022-12-11T03:21:17.573Z,1.00
2022-12-11T03:23:54.209Z,1.00
2022-12-11T03:26:22.819Z,1.00
2022-12-11T03:28:58.344Z,1.00
2022-12-11T03:31:44.119Z,1.00
2022-12-11T03:34:18.496Z,1.10
2022-12-11T03:36:47.627Z,1.10
2022-12-11T03:39:24.598Z,1.10
2022-12-11T03:41:53.338Z,1.10
2022-12-11T03:44:21.014Z,1.10
2022-12-11T03:46:49.646Z,1.10
2022-12-11T03:49:19.678Z,1.10
2022-12-11T03:51:49.276Z,1.20
2022-12-11T03:54:17.153Z,1.20
2022-12-11T03:56:46.506Z,1.20
2022-12-11T03:59:13.516Z,1.20
2022-12-11T04:01:40.446Z,1.20
2022-12-11T04:04:07.353Z,1.20
2022-12-11T04:06:34.144Z,1.20
2022-12-11T04:09:00.876Z,1.20
2022-12-11T04:11:36.358Z,1.30
2022-12-11T04:14:23.859Z,1.20
2022-12-11T04:16:50.713Z,1.30
2022-12-11T04:19:37.344Z,1.30
2022-12-11T04:22:33.881Z,1.30
2022-12-11T04:25:02.003Z,1.30
2022-12-11T04:27:47.772Z,1.30
2022-12-11T04:30:20.377Z,1.30
2022-12-11T04:32:47.426Z,1.30
2022-12-11T04:35:14.932Z,1.40
2022-12-11T04:37:42.221Z,1.40
2022-12-11T04:40:12.005Z,1.40
2022-12-11T04:42:38.957Z,1.40
2022-12-11T04:45:06.557Z,1.40
2022-12-11T04:47:35.299Z,1.40
2022-12-11T04:50:02.891Z,1.40
2022-12-11T04:52:29.594Z,1.40
2022-12-11T04:54:56.361Z,1.50
2022-12-11T04:57:23.454Z,1.40
2022-12-11T04:59:50.364Z,1.40
2022-12-11T05:02:17.277Z,1.40
2022-12-11T05:04:44.264Z,1.40
2022-12-11T05:07:11.013Z,1.50
2022-12-11T05:09:37.816Z,1.50
2022-12-11T05:12:04.827Z,1.50
2022-12-11T05:14:32.436Z,1.50
2022-12-11T05:16:59.652Z,1.50
2022-12-11T05:19:26.929Z,1.60
2022-12-11T05:21:53.699Z,1.50
2022-12-11T05:24:20.410Z,1.60
2022-12-11T05:26:47.155Z,1.50
2022-12-11T05:29:13.963Z,1.50
2022-12-11T05:31:40.765Z,1.50
2022-12-11T05:34:07.592Z,1.50
2022-12-11T05:36:34.871Z,1.50
2022-12-11T05:39:02.841Z,1.50
2022-12-11T05:41:32.437Z,1.50
2022-12-11T05:43:59.702Z,1.50
2022-12-11T05:46:28.847Z,1.50
2022-12-11T05:48:58.786Z,1.40
2022-12-11T05:51:25.843Z,1.50
2022-12-11T05:53:53.362Z,1.40
2022-12-11T05:56:23.599Z,1.50
2022-12-11T05:58:50.685Z,1.40
2022-12-11T06:01:29.710Z,1.40
2022-12-11T06:03:57.485Z,1.40
2022-12-11T06:06:25.700Z,1.40
2022-12-11T06:08:53.666Z,1.40
2022-12-11T06:11:24.099Z,1.40
2022-12-11T06:13:52.196Z,1.40
2022-12-11T06:16:19.546Z,1.50
2022-12-11T06:18:46.959Z,1.40
2022-12-11T06:21:21.607Z,1.40
2022-12-11T06:23:50.021Z,1.50
2022-12-11T06:26:18.930Z,1.50
2022-12-11T06:28:46.989Z,1.50
2022-12-11T06:31:14.313Z,1.50
2022-12-11T06:33:43.355Z,1.50
2022-12-11T06:36:16.489Z,1.50
2022-12-11T06:38:43.750Z,1.50
2022-12-11T06:41:11.225Z,1.50
2022-12-11T06:43:40.255Z,1.60
2022-12-11T06:46:12.804Z,1.60
2022-12-11T06:48:42.024Z,1.60
2022-12-11T06:51:16.970Z,1.50
2022-12-11T06:53:44.109Z,1.50
2022-12-11T06:56:13.515Z,1.50
2022-12-11T06:58:41.420Z,1.50
2022-12-11T07:01:23.415Z,1.50
2022-12-11T07:03:53.318Z,1.50
2022-12-11T07:06:20.440Z,1.50
2022-12-11T07:08:47.238Z,1.50
2022-12-11T07:11:16.369Z,1.50
2022-12-11T07:13:43.372Z,1.50
2022-12-11T07:16:12.277Z,1.60
2022-12-11T07:18:44.167Z,1.60
2022-12-11T07:21:12.804Z,1.60
2022-12-11T07:23:40.167Z,1.60
2022-12-11T07:26:08.492Z,1.60
2022-12-11T07:28:35.738Z,1.70
2022-12-11T07:31:10.420Z,1.70
2022-12-11T07:33:37.277Z,1.70
2022-12-11T07:36:05.494Z,1.70
2022-12-11T07:38:32.521Z,1.70
2022-12-11T07:41:03.664Z,1.70
2022-12-11T07:43:30.664Z,1.60
2022-12-11T07:46:04.937Z,1.60
2022-12-11T07:48:31.775Z,1.60
2022-12-11T07:51:16.108Z,1.60
2022-12-11T07:53:45.220Z,1.60
2022-12-11T07:56:12.467Z,1.60
2022-12-11T07:58:39.597Z,1.50
2022-12-11T08:01:16.505Z,1.50
2022-12-11T08:03:43.653Z,1.50
2022-12-11T08:06:11.493Z,1.50
2022-12-11T08:08:39.317Z,1.50
2022-12-11T08:11:08.473Z,1.50
2022-12-11T08:13:35.874Z,1.50
2022-12-11T08:16:07.870Z,1.50
2022-12-11T08:18:36.147Z,1.50
2022-12-11T08:21:11.182Z,1.50
2022-12-11T08:23:37.917Z,1.50
2022-12-11T08:26:10.791Z,1.50
2022-12-11T08:28:37.996Z,1.50
2022-12-11T08:31:08.001Z,1.50
2022-12-11T08:33:36.688Z,1.50
2022-12-11T08:36:08.459Z,1.50
2022-12-11T08:38:35.758Z,1.50
2022-12-11T08:41:17.243Z,1.50
2022-12-11T08:43:44.224Z,1.50
2022-12-11T08:46:12.460Z,1.60
2022-12-11T08:48:40.973Z,1.60
2022-12-11T08:51:12.405Z,1.60
2022-12-11T08:53:39.580Z,1.60
2022-12-11T08:56:08.499Z,1.60
2022-12-11T08:58:36.029Z,1.60
2022-12-11T09:01:11.468Z,1.60
2022-12-11T09:03:39.902Z,1.50
2022-12-11T09:06:13.840Z,1.50
2022-12-11T09:08:44.837Z,1.50
2022-12-11T09:11:17.175Z,1.50
2022-12-11T09:13:44.513Z,1.60
2022-12-11T09:16:14.224Z,1.60
2022-12-11T09:18:41.506Z,1.50
2022-12-11T09:21:12.055Z,1.50
2022-12-11T09:23:39.672Z,1.50
2022-12-11T09:26:08.455Z,1.50
2022-12-11T09:28:35.221Z,1.50
2022-12-11T09:31:02.052Z,1.50
2022-12-11T09:33:28.805Z,1.60
2022-12-11T09:36:02.746Z,1.50
2022-12-11T09:38:30.441Z,1.50
2022-12-11T09:40:57.721Z,1.50
2022-12-11T09:43:42.927Z,1.50
2022-12-11T09:46:13.044Z,1.60
2022-12-11T09:48:44.432Z,1.60
2022-12-11T09:51:39.310Z,1.50
2022-12-11T09:54:06.408Z,1.50
2022-12-11T09:56:39.276Z,1.50
2022-12-11T09:59:24.273Z,1.50
2022-12-11T10:02:03.009Z,1.60
2022-12-11T10:05:07.628Z,1.60
2022-12-11T10:07:34.303Z,1.50
2022-12-11T10:10:15.896Z,1.50
2022-12-11T10:13:04.704Z,1.60
2022-12-11T10:15:43.838Z,1.60
2022-12-11T10:18:14.890Z,1.60
2022-12-11T10:20:42.757Z,1.60
2022-12-11T10:23:16.864Z,1.60
2022-12-11T10:25:51.153Z,1.60
2022-12-11T10:28:19.891Z,1.60
2022-12-11T10:31:02.663Z,1.60
2022-12-11T10:33:45.825Z,1.60
2022-12-11T10:36:20.571Z,1.60
2022-12-11T10:38:47.545Z,1.60
2022-12-11T10:41:18.400Z,1.60
2022-12-11T10:43:50.055Z,1.60
2022-12-11T10:46:20.121Z,1.60
2022-12-11T10:48:49.280Z,1.60
2022-12-11T10:51:16.453Z,1.60
2022-12-11T10:53:44.598Z,1.60
2022-12-11T10:56:12.330Z,1.60
2022-12-11T10:58:49.063Z,1.60
2022-12-11T11:01:18.889Z,1.60
2022-12-11T11:04:14.336Z,1.70
2022-12-11T11:06:41.226Z,1.70
2022-12-11T11:09:29.957Z,1.70
2022-12-11T11:11:56.908Z,1.70
2022-12-11T11:14:23.968Z,1.70
2022-12-11T11:16:54.595Z,1.70
2022-12-11T11:19:29.225Z,1.70
2022-12-11T11:22:05.873Z,1.70
2022-12-11T11:24:44.159Z,1.70
2022-12-11T11:27:23.009Z,1.70
2022-12-11T11:29:53.849Z,1.70
2022-12-11T11:32:24.462Z,1.70
2022-12-11T11:34:51.199Z,1.70
2022-12-11T11:37:33.674Z,1.70
2022-12-11T11:40:22.795Z,1.60
2022-12-11T11:43:18.011Z,1.70
2022-12-11T11:46:24.350Z,1.70
2022-12-11T11:49:00.283Z,1.70
2022-12-11T11:51:34.952Z,1.80
2022-12-11T11:54:07.822Z,1.80
2022-12-11T11:56:37.862Z,1.80
2022-12-11T11:59:18.296Z,1.80
2022-12-11T12:01:45.333Z,1.80
2022-12-11T12:04:12.195Z,1.70
2022-12-11T12:07:07.922Z,1.70
2022-12-11T12:09:43.521Z,1.80
2022-12-11T12:12:35.472Z,1.70
2022-12-11T12:15:18.720Z,1.70
2022-12-11T12:17:57.274Z,1.60
2022-12-11T12:21:05.346Z,1.70
2022-12-11T12:23:50.360Z,1.60
2022-12-11T12:26:32.283Z,1.70
2022-12-11T12:29:17.579Z,1.70
2022-12-11T12:31:53.261Z,1.70
2022-12-11T12:34:55.376Z,1.70
2022-12-11T12:37:50.548Z,1.70
2022-12-11T12:40:34.299Z,1.70
2022-12-11T12:43:26.883Z,1.70
2022-12-11T12:46:48.196Z,1.70
2022-12-11T12:49:34.185Z,1.70
2022-12-11T12:52:03.003Z,1.70
2022-12-11T12:54:31.637Z,1.80
2022-12-11T12:56:59.754Z,1.80
2022-12-11T12:59:27.759Z,1.90
2022-12-11T13:02:01.137Z,1.90
2022-12-11T13:04:58.893Z,1.90
2022-12-11T13:07:30.068Z,1.90
2022-12-11T13:10:02.387Z,1.90
2022-12-11T13:12:54.162Z,2.00
2022-12-11T13:15:33.539Z,2.00
2022-12-11T13:18:02.964Z,1.90
2022-12-11T13:20:33.016Z,1.90
2022-12-11T13:23:27.979Z,1.80
2022-12-11T13:25:57.933Z,1.80
2022-12-11T13:28:49.105Z,1.80
2022-12-11T13:31:15.935Z,1.80
2022-12-11T13:33:47.018Z,1.80
2022-12-11T13:36:18.944Z,1.80
2022-12-11T13:39:04.700Z,1.80
2022-12-11T13:41:35.303Z,1.80
2022-12-11T13:44:02.835Z,1.80
2022-12-11T13:46:34.087Z,1.80
2022-12-11T13:49:03.575Z,1.90
2022-12-11T13:51:34.840Z,1.90
2022-12-11T13:54:16.692Z,1.90
2022-12-11T13:57:25.811Z,1.90
2022-12-11T13:59:57.227Z,1.90
2022-12-11T14:02:29.150Z,1.90
2022-12-11T14:04:59.740Z,1.90
2022-12-11T14:07:29.978Z,1.80
2022-12-11T14:10:03.740Z,1.80
2022-12-11T14:12:31.805Z,1.80
2022-12-11T14:15:01.967Z,1.80
2022-12-11T14:17:31.457Z,1.80
2022-12-11T14:20:01.509Z,1.80
2022-12-11T14:22:30.010Z,1.80
2022-12-11T14:25:00.063Z,1.70
2022-12-11T14:27:27.821Z,1.80
2022-12-11T14:29:55.004Z,1.80
2022-12-11T14:32:38.336Z,1.80
2022-12-11T14:35:13.703Z,1.70
2022-12-11T14:37:40.612Z,1.70
2022-12-11T14:40:15.924Z,1.70
2022-12-11T14:42:49.545Z,1.70
2022-12-11T14:45:33.333Z,1.70
2022-12-11T14:48:01.872Z,1.60
2022-12-11T14:50:43.595Z,1.60
2022-12-11T14:53:15.456Z,1.60
2022-12-11T14:55:42.585Z,1.60
2022-12-11T14:58:17.615Z,1.60
2022-12-11T15:00:44.711Z,1.50
2022-12-11T15:03:17.541Z,1.50
2022-12-11T15:05:56.290Z,1.50
2022-12-11T15:08:29.075Z,1.50
2022-12-11T15:11:08.292Z,1.50
2022-12-11T15:13:38.911Z,1.50
2022-12-11T15:16:07.728Z,1.50
2022-12-11T15:18:37.683Z,1.50
2022-12-11T15:21:09.323Z,1.60
2022-12-11T15:23:52.912Z,1.50
2022-12-11T15:26:21.135Z,1.60
2022-12-11T15:28:47.912Z,1.50
2022-12-11T15:31:32.258Z,1.50
2022-12-11T15:33:59.577Z,1.60
2022-12-11T15:36:36.652Z,1.60
2022-12-11T15:39:08.499Z,1.60
2022-12-11T15:41:35.344Z,1.60
2022-12-11T15:44:04.069Z,1.60
2022-12-11T15:46:35.612Z,1.60
2022-12-11T15:49:02.371Z,1.60
2022-12-11T15:51:29.176Z,1.60
2022-12-11T15:53:56.012Z,1.60
2022-12-11T15:56:22.804Z,1.60
2022-12-11T15:58:49.633Z,1.60
2022-12-11T16:01:16.410Z,1.60
2022-12-11T16:03:43.253Z,1.60
2022-12-11T16:06:13.086Z,1.60
2022-12-11T16:08:39.824Z,1.60
2022-12-11T16:11:06.676Z,1.60
2022-12-11T16:13:33.450Z,1.60
2022-12-11T16:16:00.346Z,1.60
2022-12-11T16:18:27.258Z,1.60
2022-12-11T16:20:53.955Z,1.60
2022-12-11T16:23:20.860Z,1.60
2022-12-11T16:25:48.633Z,1.60
2022-12-11T16:28:17.976Z,1.60
2022-12-11T16:30:45.372Z,1.60
2022-12-11T16:33:13.616Z,1.60
2022-12-11T16:35:42.688Z,1.60
2022-12-11T16:38:10.223Z,1.70
2022-12-11T16:40:37.704Z,1.60
2022-12-11T16:43:05.215Z,1.70
2022-12-11T16:45:32.631Z,1.70
2022-12-11T16:48:03.163Z,1.70
2022-12-11T16:50:30.000Z,1.70
2022-12-11T16:52:57.023Z,1.70
2022-12-11T16:55:23.906Z,1.70
2022-12-11T16:57:50.687Z,1.70
2022-12-11T17:00:17.745Z,1.70
2022-12-11T17:02:44.584Z,1.70
2022-12-11T17:05:11.751Z,1.70
2022-12-11T17:07:40.371Z,1.70
2022-12-11T17:10:07.854Z,1.70
2022-12-11T17:12:34.820Z,1.70
2022-12-11T17:15:01.571Z,1.70
2022-12-11T17:17:28.380Z,1.70
2022-12-11T17:19:55.901Z,1.70
2022-12-11T17:22:22.688Z,1.70
2022-12-11T17:24:49.652Z,1.70
2022-12-11T17:27:16.849Z,1.70
2022-12-11T17:29:43.763Z,1.70
2022-12-11T17:32:10.492Z,1.60
2022-12-11T17:34:38.646Z,1.70
2022-12-11T17:37:06.116Z,1.70
2022-12-11T17:39:33.351Z,1.70
2022-12-11T17:42:00.487Z,1.70
2022-12-11T17:44:30.299Z,1.70
2022-12-11T17:46:58.109Z,1.70
2022-12-11T17:49:25.756Z,1.70
2022-12-11T17:51:55.170Z,1.70
2022-12-11T17:54:23.948Z,1.70
2022-12-11T17:56:51.226Z,1.80
2022-12-11T17:59:17.996Z,1.70
2022-12-11T18:01:45.652Z,1.70
2022-12-11T18:04:12.710Z,1.70
2022-12-11T18:06:39.915Z,1.70
2022-12-11T18:09:07.019Z,1.70
2022-12-11T18:11:34.680Z,1.70
2022-12-11T18:14:01.948Z,1.70
2022-12-11T18:16:34.889Z,1.70
2022-12-11T18:19:08.439Z,1.70
2022-12-11T18:21:40.383Z,1.70
2022-12-11T18:24:08.596Z,1.70
2022-12-11T18:26:37.361Z,1.70
2022-12-11T18:29:04.561Z,1.70
2022-12-11T18:35:51.760Z,1.70
2022-12-11T18:38:18.526Z,1.70
2022-12-11T18:40:45.345Z,1.70
2022-12-11T18:43:12.148Z,1.70
2022-12-11T18:45:41.287Z,1.70
2022-12-11T18:48:08.597Z,1.70
2022-12-11T18:50:35.949Z,1.70
2022-12-11T18:53:03.765Z,1.70
2022-12-11T18:55:30.578Z,1.60
2022-12-11T18:57:57.318Z,1.60
2022-12-11T19:00:24.568Z,1.60
2022-12-11T19:02:52.304Z,1.60
2022-12-11T19:05:19.210Z,1.60
2022-12-11T19:07:45.991Z,1.60
2022-12-11T19:10:12.741Z,1.60
2022-12-11T19:12:39.471Z,1.60
2022-12-11T19:15:06.767Z,1.60
2022-12-11T19:17:33.513Z,1.60
2022-12-11T19:20:05.348Z,1.60
2022-12-11T19:22:45.751Z,1.60
2022-12-11T19:25:13.103Z,1.60
2022-12-11T19:27:40.056Z,1.60
2022-12-11T19:30:07.276Z,1.50
2022-12-11T19:32:36.414Z,1.60
2022-12-11T19:35:03.941Z,1.60
2022-12-11T19:37:30.845Z,1.60
2022-12-11T19:39:57.635Z,1.60
2022-12-11T19:42:26.183Z,1.60
2022-12-11T19:44:53.890Z,1.60
2022-12-11T19:47:20.638Z,1.60
2022-12-11T19:49:48.588Z,1.60
2022-12-11T19:52:15.367Z,1.60
2022-12-11T19:54:42.207Z,1.60
2022-12-11T19:57:08.982Z,1.60
2022-12-11T19:59:35.758Z,1.60
2022-12-11T20:02:02.520Z,1.60
2022-12-11T20:04:29.613Z,1.60
2022-12-11T20:06:56.385Z,1.60
2022-12-11T20:09:24.201Z,1.60
2022-12-11T20:11:51.131Z,1.60
2022-12-11T20:14:22.060Z,1.60
2022-12-11T20:19:36.460Z,1.60
2022-12-11T20:22:03.296Z,1.60
2022-12-11T20:24:30.129Z,1.60
2022-12-11T20:26:57.235Z,1.60
2022-12-11T20:29:24.136Z,1.60
2022-12-11T20:31:51.484Z,1.60
2022-12-11T20:34:18.672Z,1.60
2022-12-11T20:36:48.223Z,1.60
2022-12-11T20:39:15.573Z,1.70
2022-12-11T20:41:42.324Z,1.60
2022-12-11T20:44:09.078Z,1.70
2022-12-11T20:46:35.781Z,1.70
2022-12-11T20:49:03.231Z,1.70
2022-12-11T20:51:31.370Z,1.70
2022-12-11T20:53:59.407Z,1.70
2022-12-11T20:56:30.936Z,1.70
2022-12-11T20:58:59.388Z,1.70
2022-12-11T21:01:28.813Z,1.70
2022-12-11T21:03:55.736Z,1.70
2022-12-11T21:06:25.769Z,1.70
2022-12-11T21:08:53.349Z,1.70
2022-12-11T21:11:20.616Z,1.60
2022-12-11T21:13:51.378Z,1.60
2022-12-11T21:16:19.830Z,1.70
2022-12-11T21:18:46.967Z,1.60
2022-12-11T21:21:15.216Z,1.60
2022-12-11T21:23:42.162Z,1.60
2022-12-11T21:26:09.202Z,1.70
2022-12-11T21:28:36.041Z,1.60
2022-12-11T21:31:09.588Z,1.60
2022-12-11T21:33:36.647Z,1.60
2022-12-11T21:36:05.760Z,1.60
2022-12-11T21:38:33.268Z,1.60
2022-12-11T21:41:11.186Z,1.60
2022-12-11T21:43:43.354Z,1.70
2022-12-11T21:46:27.485Z,1.70
2022-12-11T21:48:54.414Z,1.70
2022-12-11T21:51:24.890Z,1.60
2022-12-11T21:53:52.871Z,1.60
2022-12-11T21:56:21.678Z,1.70
2022-12-11T21:58:49.984Z,1.70
2022-12-11T22:01:26.143Z,1.70
2022-12-11T22:03:53.724Z,1.70
2022-12-11T22:06:21.156Z,1.70
2022-12-11T22:08:49.193Z,1.70
2022-12-11T22:11:20.053Z,1.60
2022-12-11T22:13:47.163Z,1.70
2022-12-11T22:16:13.996Z,1.70
2022-12-11T22:18:40.829Z,1.70
2022-12-11T22:21:07.689Z,1.70
2022-12-11T22:23:34.532Z,1.60
2022-12-11T22:26:01.288Z,1.60
2022-12-11T22:28:28.090Z,1.70
2022-12-11T22:30:54.913Z,1.60
2022-12-11T22:33:21.701Z,1.70
2022-12-11T22:35:58.402Z,1.60
2022-12-11T22:38:25.929Z,1.60
2022-12-11T22:40:53.764Z,1.60
2022-12-11T22:43:21.604Z,1.60
2022-12-11T22:45:49.398Z,1.60
2022-12-11T22:48:16.415Z,1.70
2022-12-11T22:50:44.308Z,1.70
2022-12-11T22:53:11.684Z,1.70
2022-12-11T22:55:39.921Z,1.70
2022-12-11T22:58:07.281Z,1.70
2022-12-11T23:00:34.442Z,1.70
2022-12-11T23:03:01.795Z,1.70
2022-12-11T23:05:28.938Z,1.60
2022-12-11T23:07:55.847Z,1.70
2022-12-11T23:10:22.898Z,1.70
2022-12-11T23:12:49.741Z,1.70
2022-12-11T23:15:16.936Z,1.70
2022-12-11T23:17:43.769Z,1.70
2022-12-11T23:20:11.008Z,1.70
2022-12-11T23:22:37.843Z,1.70
2022-12-11T23:25:04.957Z,1.70
2022-12-11T23:27:31.736Z,1.70
2022-12-11T23:29:58.531Z,1.70
2022-12-11T23:32:25.345Z,1.70
2022-12-11T23:34:52.062Z,1.70
2022-12-11T23:37:18.818Z,1.70
2022-12-11T23:39:45.581Z,1.70
2022-12-11T23:42:12.364Z,1.70
2022-12-11T23:44:39.074Z,1.70
2022-12-11T23:47:05.899Z,1.70
2022-12-11T23:49:32.676Z,1.70
2022-12-11T23:51:59.588Z,1.70
2022-12-11T23:54:26.425Z,1.70
2022-12-11T23:56:53.200Z,1.60
2022-12-11T23:59:20.173Z,1.60
